map of VXO home
VXO - Airport
Location
City:  Växjö, Småland, Kronobergs län, Sweden
Name:Växjö-Smaland Airport
ICAO:ESMX
IATA:VXO

Details
Type:Airport (Aerodrome, Airfield)
Latitude:56°55'45"N (56.929144)
Longitude:14°43'41"E (14.727994)
Datum:WGS 1984
Elevation:610 ft (186 m)
Variation:4.71°E (WMM2015 magnetic declination)
0.15° annual change
Runways:1
Longest:6900 × 148 ft (2103 × 45 m), paved

Time
Time Zone:UTC+1 (DST+2)
Local Time:

Weather
METAR:ESMX 162150Z AUTO 22015KT 4800 -RA BKN006/// OVC008/// 06/06 Q0986

Related Locations
Nearby:
Farthest:CHT: 11402 mi / 18350 km
Waitangi [Tuuta], CIT, NZ

Find:

   beyond  
but within

Other Information
Maps:
NOTAMs:
Links:
Sources:

  
  • flag of Sweden
  

Sectional Chart

Flight Planning
at skyvector.com

Satellite Image

Google Maps Satellite view

 

Copyright © 2004-2019 Karl L. Swartz. All rights reserved.
The Great Circle Mapper name and logo are trademarks of the Great Circle Mapper.
All other trademarks mentioned herein belong to their respective owners.
Please see credits for attibutions and further copyright information.

  Follow gcmap on Facebook Follow gcmap on Twitter Follow gcmap on Google+ GCmap on LinkedIn

hCard Microformat

Geo Microformat